Time;durP1;ratioP1;P1;durP2;ratioP2;P2;SDS_P1;SDS_P2;PMS_P1;PMS_P2;Temp;Humidity;BMP_temperature;BMP_pressure;BME280_temperature;BME280_humidity;BME280_pressure;Samples;Min_cycle;Max_cycle;Signal;HPM_P1;HPM_P2
2021/01/03 00:00:24;;;;;;;24.53;17.30;;;2.10;99.90;;;2.92;98.88;99956.09;4751666;30;20266;-63
2021/01/03 00:02:52;;;;;;;26.30;17.53;;;2.00;99.90;;;2.81;98.38;99949.34;4751613;30;20276;-63
2021/01/03 00:05:27;;;;;;;24.50;16.33;;;2.00;99.90;;;2.75;98.76;99949.22;4745548;30;20308;-63
2021/01/03 00:07:55;;;;;;;25.10;17.63;;;2.00;99.90;;;2.90;98.60;99935.00;4724136;30;20281;-63
2021/01/03 00:10:25;;;;;;;26.30;17.23;;;2.00;99.90;;;2.87;98.21;99946.00;4725133;30;20722;-62
2021/01/03 00:12:52;;;;;;;26.37;17.80;;;2.00;99.90;;;3.10;97.88;99952.16;4727607;30;20239;-63
2021/01/03 00:15:23;;;;;;;25.70;16.87;;;2.10;99.90;;;2.89;98.01;99954.63;4725381;30;20263;-63
2021/01/03 00:17:51;;;;;;;24.53;16.73;;;2.00;99.90;;;2.79;99.14;99959.31;4724344;30;20748;-63
2021/01/03 00:20:22;;;;;;;24.13;17.60;;;2.00;99.90;;;2.62;100.00;99967.56;4723393;30;20210;-63
2021/01/03 00:22:50;;;;;;;27.47;17.93;;;1.90;99.90;;;2.67;99.92;99965.22;4724323;30;20572;-63
2021/01/03 00:25:20;;;;;;;25.20;16.97;;;1.80;99.90;;;2.64;99.71;99968.22;4724996;30;20293;-62
2021/01/03 00:27:49;;;;;;;25.60;17.57;;;1.80;99.90;;;2.48;100.00;99975.28;4716423;30;20205;-62
2021/01/03 00:30:20;;;;;;;25.60;17.30;;;1.70;99.90;;;2.52;100.00;99965.09;4722966;30;20676;-62
2021/01/03 00:32:48;;;;;;;26.30;17.37;;;1.70;99.90;;;2.55;100.00;99958.63;4715792;30;20229;-65
2021/01/03 00:35:21;;;;;;;23.83;16.70;;;1.70;99.90;;;2.69;100.00;99952.59;4717415;30;20241;-64
2021/01/03 00:37:49;;;;;;;26.00;17.67;;;1.70;99.90;;;2.88;99.37;99966.25;4725941;30;20197;-63
2021/01/03 00:40:21;;;;;;;25.43;17.17;;;1.80;99.90;;;2.63;99.02;99955.91;4730610;30;20296;-63
2021/01/03 00:42:49;;;;;;;25.40;17.30;;;1.80;99.90;;;2.40;100.00;99954.03;4723702;30;20243;-62
2021/01/03 00:45:17;;;;;;;29.30;18.10;;;1.70;99.90;;;2.58;100.00;99958.28;4725858;30;20244;-63
2021/01/03 00:47:44;;;;;;;26.93;17.57;;;1.60;99.90;;;2.48;100.00;99953.19;4730488;30;20301;-64
2021/01/03 00:50:14;;;;;;;28.73;17.70;;;1.70;99.90;;;2.56;100.00;99955.78;4725029;30;20377;-62
2021/01/03 00:52:41;;;;;;;28.37;18.93;;;1.70;99.90;;;2.62;100.00;99960.44;4731330;30;20219;-62
2021/01/03 00:55:11;;;;;;;26.50;17.60;;;1.70;99.90;;;2.65;100.00;99968.06;4733027;30;20228;-62
2021/01/03 00:57:39;;;;;;;30.17;18.00;;;1.70;99.90;;;2.53;100.00;99960.63;4730338;30;20324;-62
2021/01/03 01:00:13;;;;;;;27.77;18.90;;;1.70;99.90;;;2.51;100.00;99963.47;4733038;30;20248;-63
2021/01/03 01:02:40;;;;;;;32.33;19.33;;;1.60;99.90;;;2.19;100.00;99953.78;4732937;30;20255;-62
2021/01/03 01:05:08;;;;;;;29.43;18.97;;;1.60;99.90;;;2.27;100.00;99953.75;4732900;30;20217;-62
2021/01/03 01:07:36;;;;;;;29.20;18.87;;;1.50;99.90;;;2.38;100.00;99941.94;4727765;30;20284;-62
2021/01/03 01:10:07;;;;;;;28.13;17.53;;;1.60;99.90;;;2.40;100.00;99943.41;4732602;30;20245;-62
2021/01/03 01:12:36;;;;;;;27.90;19.13;;;1.50;99.90;;;2.30;100.00;99940.13;4737074;30;20291;-63
2021/01/03 01:15:06;;;;;;;27.50;18.87;;;1.50;99.90;;;2.47;100.00;99938.22;4731299;30;20213;-62
2021/01/03 01:17:34;;;;;;;29.97;19.70;;;1.60;99.90;;;2.56;100.00;99941.66;4732973;30;20248;-61
2021/01/03 01:20:01;;;;;;;30.30;19.20;;;1.60;99.90;;;2.54;100.00;99938.38;4733135;30;20257;-63
2021/01/03 01:22:28;;;;;;;29.90;19.93;;;1.70;99.90;;;2.89;99.70;99941.34;4732847;30;20216;-61
2021/01/03 01:24:55;;;;;;;30.13;19.57;;;1.80;99.90;;;2.62;100.00;99948.97;4727268;30;20264;-63
2021/01/03 01:27:23;;;;;;;28.73;19.63;;;1.80;99.90;;;2.42;100.00;99956.50;4733151;30;20240;-63
2021/01/03 01:29:50;;;;;;;31.93;19.70;;;1.70;99.90;;;2.49;100.00;99950.34;4733264;30;20291;-62
2021/01/03 01:32:17;;;;;;;28.73;18.93;;;1.70;99.90;;;2.63;100.00;99951.44;4724004;30;20249;-62
2021/01/03 01:34:45;;;;;;;30.30;19.27;;;1.70;99.90;;;2.45;100.00;99945.56;4732819;30;20209;-62
2021/01/03 01:37:12;;;;;;;31.80;19.77;;;1.70;99.90;;;2.42;100.00;99935.25;4722259;30;20268;-61
2021/01/03 01:39:39;;;;;;;34.87;20.70;;;1.60;99.90;;;2.60;100.00;99945.63;4715547;30;20297;-63
2021/01/03 01:42:07;;;;;;;29.53;19.87;;;1.70;99.90;;;2.52;100.00;99941.19;4717797;30;20239;-63
2021/01/03 01:44:34;;;;;;;27.57;18.50;;;1.70;99.90;;;2.74;100.00;99945.72;4718803;30;20267;-63
2021/01/03 01:47:09;;;;;;;29.20;19.07;;;1.70;99.90;;;2.56;100.00;99939.00;4718880;30;20297;-62
2021/01/03 01:49:43;;;;;;;33.30;20.27;;;1.70;99.90;;;2.58;100.00;99942.31;4718612;30;20340;-62
2021/01/03 01:52:17;;;;;;;29.23;19.13;;;1.80;99.90;;;2.58;100.00;99939.66;4725542;30;20683;-62
2021/01/03 01:54:51;;;;;;;28.70;19.00;;;1.80;99.90;;;2.68;100.00;99925.16;4734458;30;20208;-62
2021/01/03 01:57:28;;;;;;;32.30;20.20;;;1.80;99.90;;;2.71;100.00;99923.97;4736070;30;20189;-62
2021/01/03 02:00:03;;;;;;;30.37;19.67;;;1.80;99.90;;;2.65;100.00;99904.25;4735587;30;20661;-63
2021/01/03 02:02:37;;;;;;;29.97;19.40;;;1.80;99.90;;;2.68;100.00;99913.69;4735559;30;20325;-61
2021/01/03 02:05:14;;;;;;;31.10;19.87;;;1.80;99.90;;;2.65;100.00;99912.22;4735731;30;20229;-62
2021/01/03 02:07:54;;;;;;;33.53;19.73;;;1.80;99.90;;;2.71;100.00;99911.50;4735678;30;20235;-62
2021/01/03 02:10:27;;;;;;;30.93;20.47;;;1.80;99.90;;;2.58;100.00;99905.09;4735523;30;20262;-62
2021/01/03 02:13:17;;;;;;;32.00;19.37;;;1.70;99.90;;;2.68;100.00;99901.22;4741865;30;20295;-62
2021/01/03 02:15:45;;;;;;;29.63;18.80;;;1.80;99.90;;;2.46;100.00;99905.50;4753080;30;20275;-62
2021/01/03 02:18:15;;;;;;;30.37;18.97;;;1.80;99.90;;;2.63;100.00;99908.06;4753097;30;20274;-62
2021/01/03 02:21:09;;;;;;;34.23;20.27;;;1.70;99.90;;;2.40;100.00;99902.72;4753097;30;20643;-62
2021/01/03 02:23:53;;;;;;;32.77;19.80;;;1.70;99.90;;;2.51;100.00;99902.31;4752736;30;20755;-62
2021/01/03 02:26:26;;;;;;;28.50;17.97;;;1.60;99.90;;;2.60;100.00;99892.47;4752960;30;20328;-61
2021/01/03 02:28:56;;;;;;;31.93;19.47;;;1.70;99.90;;;2.59;100.00;99886.31;4753289;30;20727;-62
2021/01/03 02:31:33;;;;;;;32.27;19.73;;;1.70;99.90;;;2.47;100.00;99887.72;4757572;30;20322;-62
2021/01/03 02:34:05;;;;;;;31.83;20.17;;;1.70;99.90;;;2.38;100.00;99884.28;4759964;30;20227;-62
2021/01/03 02:36:39;;;;;;;34.50;20.20;;;1.80;99.90;;;2.33;100.00;99877.84;4754821;30;20215;-62
2021/01/03 02:39:23;;;;;;;34.73;21.20;;;1.60;99.90;;;2.50;100.00;99884.72;4752824;30;20232;-61
2021/01/03 02:41:57;;;;;;;34.33;21.07;;;1.60;99.90;;;2.26;100.00;99882.19;4752941;30;20309;-62
2021/01/03 02:44:24;;;;;;;40.27;20.93;;;1.50;99.90;;;2.20;100.00;99878.38;4752745;30;20369;-62
2021/01/03 02:46:56;;;;;;;34.20;20.37;;;1.40;99.90;;;2.03;100.00;99883.97;4752912;30;20374;-62
2021/01/03 02:49:23;;;;;;;36.27;21.90;;;1.40;99.90;;;2.11;100.00;99882.09;4752651;30;20340;-62
2021/01/03 02:51:51;;;;;;;36.03;21.93;;;1.40;99.90;;;2.11;100.00;99876.78;4752416;30;20451;-61
2021/01/03 02:54:18;;;;;;;36.10;20.50;;;1.30;99.90;;;2.06;100.00;99880.97;4751870;30;20235;-61
2021/01/03 02:56:45;;;;;;;35.23;21.07;;;1.30;99.90;;;1.92;100.00;99874.53;4752326;30;20263;-62
2021/01/03 02:59:13;;;;;;;33.57;21.20;;;1.20;99.90;;;2.06;100.00;99871.13;4752732;30;20303;-62
2021/01/03 03:01:40;;;;;;;39.10;20.40;;;1.20;99.90;;;1.95;100.00;99876.00;4752408;30;20287;-62
2021/01/03 03:04:08;;;;;;;35.70;20.83;;;1.20;99.90;;;2.16;100.00;99870.94;4752824;30;20262;-63
2021/01/03 03:06:35;;;;;;;31.33;18.73;;;1.30;99.90;;;2.06;100.00;99873.00;4752560;30;20275;-62
2021/01/03 03:09:06;;;;;;;32.00;20.70;;;1.20;99.90;;;2.01;100.00;99870.81;4752766;30;20695;-62
2021/01/03 03:11:33;;;;;;;35.83;20.37;;;1.20;99.90;;;1.99;100.00;99866.72;4751909;30;20323;-62
2021/01/03 03:14:00;;;;;;;34.07;20.70;;;1.20;99.90;;;1.81;100.00;99860.81;4752374;30;20655;-61
2021/01/03 03:16:28;;;;;;;31.67;19.80;;;1.10;99.90;;;1.70;100.00;99861.16;4752098;30;20706;-62
2021/01/03 03:18:55;;;;;;;31.77;19.83;;;1.00;99.90;;;1.81;100.00;99864.28;4752284;30;20286;-63
2021/01/03 03:21:23;;;;;;;36.97;20.87;;;1.00;99.90;;;1.85;100.00;99859.44;4751930;30;20248;-62
2021/01/03 03:23:50;;;;;;;32.73;19.77;;;1.00;99.90;;;1.74;100.00;99863.28;4751910;30;20216;-62
2021/01/03 03:26:17;;;;;;;31.23;18.57;;;1.00;99.90;;;1.90;100.00;99849.13;4751697;30;20260;-62
2021/01/03 03:28:45;;;;;;;30.50;18.67;;;1.10;99.90;;;1.91;100.00;99853.47;4752200;30;20642;-62
2021/01/03 03:31:12;;;;;;;33.37;19.00;;;1.10;99.90;;;1.85;100.00;99843.50;4751991;30;20267;-62
2021/01/03 03:33:40;;;;;;;29.67;17.57;;;1.10;99.90;;;1.79;100.00;99836.25;4752118;30;20683;-63
2021/01/03 03:36:08;;;;;;;29.93;18.57;;;1.10;99.90;;;1.80;100.00;99832.59;4751801;30;20208;-63
2021/01/03 03:38:35;;;;;;;26.80;17.60;;;1.00;99.90;;;1.89;100.00;99828.91;4751937;30;20744;-62
2021/01/03 03:41:03;;;;;;;28.83;17.70;;;1.10;99.90;;;1.96;100.00;99828.03;4751406;30;20754;-63
2021/01/03 03:43:30;;;;;;;28.37;17.87;;;1.10;99.90;;;1.91;100.00;99825.06;4751895;30;20240;-61
2021/01/03 03:45:57;;;;;;;28.77;18.03;;;1.10;99.90;;;1.91;100.00;99829.56;4751858;30;20274;-62
2021/01/03 03:48:25;;;;;;;26.20;16.33;;;1.10;99.90;;;2.02;100.00;99821.19;4751534;30;20212;-63
2021/01/03 03:50:53;;;;;;;25.07;16.17;;;1.10;99.90;;;1.81;100.00;99820.97;4751334;30;20725;-64
2021/01/03 03:53:20;;;;;;;26.43;17.03;;;1.10;99.90;;;1.72;100.00;99819.34;4751603;30;20652;-62
2021/01/03 03:55:48;;;;;;;27.17;16.13;;;1.00;99.90;;;1.70;100.00;99819.53;4751459;30;20313;-63
2021/01/03 03:58:15;;;;;;;28.77;16.40;;;1.00;99.90;;;1.60;100.00;99815.41;4751593;30;20247;-62
2021/01/03 04:00:42;;;;;;;24.23;15.13;;;0.90;99.90;;;2.06;100.00;99814.56;4751655;30;20291;-62
2021/01/03 04:03:10;;;;;;;25.10;15.80;;;1.00;99.90;;;2.01;100.00;99815.06;4751535;30;20220;-61
2021/01/03 04:05:37;;;;;;;23.70;15.33;;;1.10;99.90;;;1.75;100.00;99817.19;4751482;30;20275;-62
2021/01/03 04:08:06;;;;;;;24.47;15.70;;;1.00;99.90;;;1.92;100.00;99821.44;4751231;30;20229;-62
2021/01/03 04:10:33;;;;;;;23.93;15.87;;;1.00;99.90;;;1.61;100.00;99825.03;4751174;30;20714;-62
2021/01/03 04:13:00;;;;;;;23.10;14.87;;;1.00;99.90;;;1.84;100.00;99824.13;4751462;30;20248;-62
2021/01/03 04:15:27;;;;;;;23.30;15.23;;;1.00;99.90;;;1.74;100.00;99815.50;4751446;30;20269;-62
2021/01/03 04:17:55;;;;;;;25.00;14.90;;;1.00;99.90;;;1.84;100.00;99820.63;4751344;30;20290;-63
2021/01/03 04:20:22;;;;;;;23.20;15.90;;;1.00;99.90;;;1.68;100.00;99818.88;4751058;30;20250;-63
2021/01/03 04:22:51;;;;;;;23.57;15.00;;;1.00;99.90;;;1.71;100.00;99818.50;4750668;30;20218;-62
2021/01/03 04:25:20;;;;;;;23.63;14.13;;;0.90;99.90;;;1.83;100.00;99817.13;4751015;30;20243;-63
2021/01/03 04:27:48;;;;;;;23.20;15.13;;;1.00;99.90;;;1.51;100.00;99814.59;4750947;30;20320;-63
2021/01/03 04:30:17;;;;;;;20.93;14.93;;;0.90;99.90;;;1.71;100.00;99815.06;4751069;30;20270;-63
2021/01/03 04:32:44;;;;;;;21.83;14.50;;;0.90;99.90;;;1.90;100.00;99814.63;4751165;30;20228;-62
2021/01/03 04:35:12;;;;;;;23.80;15.20;;;1.00;99.90;;;1.65;100.00;99808.59;4751151;30;20623;-62
2021/01/03 04:37:40;;;;;;;21.13;14.23;;;1.00;99.90;;;1.65;100.00;99819.22;4750796;30;20294;-62
2021/01/03 04:40:17;;;;;;;22.97;14.57;;;0.80;99.90;;;1.77;100.00;99812.53;4750546;30;20679;-62
2021/01/03 04:42:52;;;;;;;23.33;14.73;;;0.90;99.90;;;1.70;100.00;99806.25;4751082;30;20200;-61
2021/01/03 04:45:28;;;;;;;22.37;14.00;;;0.90;99.90;;;1.73;100.00;99811.22;4750820;30;20231;-62
2021/01/03 04:47:59;;;;;;;20.43;13.13;;;0.90;99.90;;;1.68;100.00;99808.25;4751029;30;20238;-62
2021/01/03 04:51:02;;;;;;;24.17;14.23;;;0.90;99.90;;;1.49;100.00;99808.63;4750393;30;20299;-63
2021/01/03 04:53:50;;;;;;;22.33;14.17;;;0.80;99.90;;;1.59;100.00;99805.81;4750982;30;20285;-62
2021/01/03 04:56:34;;;;;;;20.23;14.23;;;0.80;99.90;;;1.61;100.00;99804.63;4750701;30;20289;-63
2021/01/03 04:59:12;;;;;;;22.53;13.33;;;0.80;99.90;;;1.56;100.00;99806.13;4750957;30;20278;-63
2021/01/03 05:02:26;;;;;;;19.67;12.63;;;0.80;99.90;;;1.57;100.00;99810.44;4750644;30;20202;-63
2021/01/03 05:05:15;;;;;;;17.83;12.03;;;0.80;99.90;;;1.52;100.00;99808.31;4750644;30;20788;-62
2021/01/03 05:07:52;;;;;;;19.40;13.87;;;0.80;99.90;;;1.55;100.00;99807.13;4750779;30;20217;-62
2021/01/03 05:10:23;;;;;;;20.10;13.00;;;0.80;99.90;;;1.26;100.00;99813.00;4750801;30;20246;-62
2021/01/03 05:13:14;;;;;;;19.83;13.20;;;0.80;99.90;;;1.54;100.00;99806.28;4750584;30;20672;-62
2021/01/03 05:15:42;;;;;;;21.73;13.27;;;0.70;99.90;;;1.36;100.00;99813.66;4751106;30;20622;-63
2021/01/03 05:18:10;;;;;;;19.13;12.30;;;0.70;99.90;;;1.43;100.00;99817.28;4754198;30;20644;-62
2021/01/03 05:20:38;;;;;;;19.00;12.17;;;0.70;99.90;;;1.34;100.00;99809.53;4754012;30;20262;-63
2021/01/03 05:23:15;;;;;;;17.60;12.23;;;0.70;99.90;;;1.50;100.00;99807.66;4754135;30;20229;-62
2021/01/03 05:25:44;;;;;;;18.23;12.40;;;0.70;99.90;;;1.44;100.00;99807.50;4753930;30;20211;-62
2021/01/03 05:28:22;;;;;;;18.60;12.23;;;0.70;99.90;;;1.43;100.00;99809.31;4754201;30;20269;-63
2021/01/03 05:30:51;;;;;;;17.40;11.40;;;0.70;99.90;;;1.47;100.00;99817.78;4753833;30;20303;-62
2021/01/03 05:33:27;;;;;;;18.17;12.07;;;0.70;99.90;;;1.43;100.00;99808.50;4754128;30;20241;-63
2021/01/03 05:35:56;;;;;;;17.30;12.30;;;0.70;99.90;;;1.34;100.00;99810.34;4753426;30;20836;-62
2021/01/03 05:38:38;;;;;;;17.97;12.03;;;0.60;99.90;;;1.55;100.00;99805.31;4753895;30;20209;-62
2021/01/03 05:41:16;;;;;;;16.13;11.27;;;0.70;99.90;;;1.43;100.00;99809.31;4753641;30;20542;-62
2021/01/03 05:43:48;;;;;;;17.27;12.33;;;0.70;99.90;;;1.29;100.00;99807.34;4753690;30;20710;-62
2021/01/03 05:46:25;;;;;;;15.70;11.27;;;0.60;99.90;;;1.42;100.00;99809.50;4753894;30;20197;-63
2021/01/03 05:49:02;;;;;;;17.10;12.30;;;0.60;99.90;;;1.54;100.00;99802.84;4753725;30;20254;-62
2021/01/03 05:51:44;;;;;;;15.80;11.03;;;0.70;99.90;;;1.34;100.00;99805.03;4753472;30;20274;-62
2021/01/03 05:54:18;;;;;;;17.43;11.77;;;0.70;99.90;;;1.43;100.00;99805.84;4753431;30;20209;-62
2021/01/03 05:56:46;;;;;;;18.30;12.13;;;0.60;99.90;;;1.45;100.00;99804.69;4717916;30;20731;-62
2021/01/03 05:59:15;;;;;;;17.63;11.63;;;0.70;99.90;;;1.40;100.00;99800.88;4726808;30;20283;-62
2021/01/03 06:01:43;;;;;;;16.10;11.67;;;0.70;99.90;;;1.53;100.00;99791.38;4727463;30;20311;-62
2021/01/03 06:04:13;;;;;;;16.93;11.20;;;0.70;99.90;;;1.51;100.00;99796.03;4726113;30;20637;-62
2021/01/03 06:07:18;;;;;;;18.97;12.23;;;0.70;99.90;;;1.45;100.00;99794.06;4723926;30;20631;-62
2021/01/03 06:09:46;;;;;;;19.23;12.10;;;0.70;99.90;;;1.42;100.00;99801.53;4721049;30;20266;-62
2021/01/03 06:12:20;;;;;;;17.27;11.73;;;0.70;99.90;;;1.44;100.00;99800.34;4736665;30;20653;-62
2021/01/03 06:14:52;;;;;;;18.07;11.87;;;0.60;99.90;;;1.54;100.00;99797.53;4753103;30;20236;-62
2021/01/03 06:17:39;;;;;;;16.37;11.67;;;0.70;99.90;;;1.49;100.00;99790.06;4753390;30;20246;-63
2021/01/03 06:20:16;;;;;;;15.43;11.03;;;0.70;99.90;;;1.40;100.00;99799.06;4753020;30;20201;-62
2021/01/03 06:22:49;;;;;;;15.20;11.07;;;0.70;99.90;;;1.54;100.00;99803.63;4752990;30;20672;-63
2021/01/03 06:25:28;;;;;;;14.73;10.47;;;0.70;99.90;;;1.51;100.00;99797.84;4752418;30;20218;-63
2021/01/03 06:28:06;;;;;;;15.07;10.37;;;0.80;99.90;;;1.39;100.00;99801.88;4752122;30;20207;-62
2021/01/03 06:30:35;;;;;;;14.93;9.97;;;0.70;99.90;;;1.53;100.00;99793.19;4752954;30;20616;-63
2021/01/03 06:33:42;;;;;;;15.17;10.23;;;0.70;99.90;;;1.50;100.00;99793.53;4753026;30;20221;-63
2021/01/03 06:36:17;;;;;;;14.03;9.33;;;0.70;99.90;;;1.62;100.00;99792.19;4752969;30;20284;-62
2021/01/03 06:39:12;;;;;;;12.77;9.23;;;0.80;99.90;;;1.60;100.00;99787.03;4752634;30;20204;-63
2021/01/03 06:41:54;;;;;;;11.70;8.83;;;0.70;99.90;;;1.60;100.00;99787.03;4757736;30;20314;-63
2021/01/03 06:44:56;;;;;;;12.53;9.47;;;0.80;99.90;;;1.39;100.00;99792.06;4757576;30;20297;-63
2021/01/03 06:48:11;;;;;;;12.20;9.37;;;0.70;99.90;;;1.40;100.00;99790.25;4752916;30;20201;-63
2021/01/03 06:51:12;;;;;;;12.53;8.93;;;0.70;99.90;;;1.45;100.00;99791.41;4752391;30;20247;-62
2021/01/03 06:54:41;;;;;;;12.70;8.73;;;0.60;99.90;;;1.46;100.00;99792.22;4752541;30;20283;-63
2021/01/03 06:57:56;;;;;;;12.37;8.60;;;0.60;99.90;;;1.46;100.00;99790.41;4752307;30;20254;-62
2021/01/03 07:00:25;;;;;;;11.17;8.30;;;0.70;99.90;;;1.46;100.00;99794.88;4742297;30;20247;-63
2021/01/03 07:03:01;;;;;;;12.70;8.23;;;0.70;99.90;;;1.57;100.00;99787.41;4752585;30;20293;-63
2021/01/03 07:05:29;;;;;;;12.20;8.97;;;0.70;99.90;;;1.35;100.00;99793.44;4752549;30;20633;-65
2021/01/03 07:08:06;;;;;;;10.90;8.47;;;0.70;99.90;;;1.51;100.00;99800.50;4752168;30;20672;-63
2021/01/03 07:10:39;;;;;;;13.30;8.97;;;0.70;99.90;;;1.42;100.00;99788.28;4752119;30;20188;-63
2021/01/03 07:13:37;;;;;;;12.27;8.67;;;0.70;99.90;;;1.45;100.00;99794.06;4752404;30;20249;-63
2021/01/03 07:16:31;;;;;;;13.97;8.40;;;0.70;99.90;;;1.36;100.00;99788.94;4752094;30;20206;-62
2021/01/03 07:19:05;;;;;;;12.43;8.80;;;0.60;99.90;;;1.42;100.00;99790.94;4751806;30;20299;-63
2021/01/03 07:21:43;;;;;;;11.63;7.87;;;0.60;99.90;;;1.49;100.00;99789.25;4751963;30;20257;-62
2021/01/03 07:24:36;;;;;;;11.10;7.80;;;0.70;99.90;;;1.38;100.00;99792.25;4751943;30;20197;-62
2021/01/03 07:27:33;;;;;;;11.23;8.67;;;0.70;99.90;;;1.33;100.00;99798.06;4752032;30;20196;-63
2021/01/03 07:30:43;;;;;;;11.33;8.27;;;0.70;99.90;;;1.43;100.00;99790.75;4752100;30;20243;-63
2021/01/03 07:33:23;;;;;;;12.60;8.60;;;0.70;99.90;;;1.47;100.00;99791.25;4751863;30;20302;-62
2021/01/03 07:35:50;;;;;;;11.47;7.97;;;0.70;99.90;;;1.51;100.00;99796.03;4751992;30;20225;-63
2021/01/03 07:38:31;;;;;;;10.97;8.10;;;0.70;99.90;;;1.45;100.00;99790.56;4751287;30;20680;-62
2021/01/03 07:41:09;;;;;;;11.53;7.83;;;0.70;99.90;;;1.54;100.00;99794.88;4751461;30;20247;-63
2021/01/03 07:43:59;;;;;;;13.37;8.47;;;0.70;99.90;;;1.37;100.00;99787.97;4751610;30;20667;-62
2021/01/03 07:46:53;;;;;;;10.70;7.43;;;0.70;99.90;;;1.48;100.00;99800.84;4751853;30;20601;-63
2021/01/03 07:49:44;;;;;;;12.00;7.40;;;0.70;99.90;;;1.46;100.00;99797.53;4751763;30;20293;-63
2021/01/03 07:52:40;;;;;;;10.40;7.47;;;0.70;99.90;;;1.47;100.00;99802.69;4747441;30;20324;-63
2021/01/03 07:55:24;;;;;;;10.20;7.70;;;0.70;99.90;;;1.70;100.00;99803.59;4751507;30;20277;-63
2021/01/03 07:57:58;;;;;;;10.47;7.40;;;0.80;99.90;;;1.61;100.00;99803.81;4751694;30;20232;-62
2021/01/03 08:00:30;;;;;;;10.43;7.37;;;0.80;99.90;;;1.55;100.00;99802.66;4751691;30;20255;-63
2021/01/03 08:03:03;;;;;;;11.00;7.23;;;0.80;99.90;;;1.65;100.00;99810.41;4751704;30;20663;-63
2021/01/03 08:05:31;;;;;;;9.93;7.27;;;0.80;99.90;;;1.58;100.00;99801.47;4751368;30;20204;-62
2021/01/03 08:08:06;;;;;;;11.07;7.07;;;0.90;99.90;;;1.45;100.00;99803.84;4751209;30;20235;-62
2021/01/03 08:10:34;;;;;;;10.43;7.63;;;0.80;99.90;;;1.65;100.00;99794.50;4750926;30;20260;-62
2021/01/03 08:13:11;;;;;;;9.57;7.10;;;0.80;99.90;;;1.64;100.00;99796.31;4751372;30;20687;-63
2021/01/03 08:15:39;;;;;;;8.70;6.60;;;0.80;99.90;;;1.75;100.00;99801.25;4751502;30;20222;-63
2021/01/03 08:18:15;;;;;;;10.03;7.40;;;0.80;99.90;;;1.63;100.00;99794.66;4751418;30;20230;-64
2021/01/03 08:20:43;;;;;;;8.73;6.73;;;0.90;99.90;;;1.65;100.00;99797.97;4751360;30;20238;-62
2021/01/03 08:23:26;;;;;;;8.70;6.93;;;0.90;99.90;;;1.66;100.00;99802.28;4751410;30;20299;-63
2021/01/03 08:26:08;;;;;;;8.20;6.63;;;0.90;99.90;;;1.80;100.00;99795.41;4751565;30;20238;-63
2021/01/03 08:28:48;;;;;;;8.33;6.63;;;0.90;99.90;;;1.70;100.00;99802.75;4752173;30;20242;-63
2021/01/03 08:31:16;;;;;;;9.87;7.20;;;0.90;99.90;;;1.76;100.00;99797.59;4751431;30;20292;-64
2021/01/03 08:33:43;;;;;;;9.33;7.10;;;0.90;99.90;;;1.70;100.00;99797.44;4751389;30;20686;-63
2021/01/03 08:36:23;;;;;;;8.77;6.63;;;0.90;99.90;;;1.64;100.00;99795.50;4751666;30;20245;-63
2021/01/03 08:38:51;;;;;;;8.70;6.40;;;1.00;99.90;;;1.61;100.00;99799.31;4750843;30;20235;-63
2021/01/03 08:41:31;;;;;;;9.53;7.30;;;0.90;99.90;;;1.75;100.00;99800.41;4750393;30;20218;-62
2021/01/03 08:43:59;;;;;;;8.03;6.57;;;0.90;99.90;;;1.82;100.00;99799.56;4750747;30;20202;-64
2021/01/03 08:46:31;;;;;;;8.63;6.50;;;0.90;99.90;;;1.80;100.00;99800.72;4750818;30;20211;-63
2021/01/03 08:49:03;;;;;;;10.35;8.30;;;1.00;99.90;;;1.64;100.00;99808.78;4750366;30;20476;-64
2021/01/03 08:51:31;;;;;;;8.53;6.50;;;0.90;99.90;;;1.91;100.00;99803.81;4755120;30;20220;-62
2021/01/03 08:54:03;;;;;;;9.57;6.97;;;1.00;99.90;;;1.75;100.00;99801.25;4757011;30;20314;-63
2021/01/03 08:56:46;;;;;;;8.77;6.17;;;1.00;99.90;;;1.93;100.00;99803.69;4757031;30;20200;-62
2021/01/03 08:59:18;;;;;;;9.47;6.80;;;1.10;99.90;;;1.85;100.00;99807.19;4756730;30;20631;-63
2021/01/03 09:01:46;;;;;;;9.17;6.77;;;1.00;99.90;;;1.70;100.00;99805.41;4756574;30;20290;-63
2021/01/03 09:04:19;;;;;;;8.03;6.80;;;1.00;99.90;;;1.81;100.00;99811.16;4757158;30;20343;-62
2021/01/03 09:06:52;;;;;;;7.77;6.20;;;1.10;99.90;;;1.81;100.00;99815.66;4756586;30;20306;-64
2021/01/03 09:09:22;;;;;;;9.17;6.40;;;1.10;99.90;;;2.16;100.00;99809.84;4756682;30;20255;-64
2021/01/03 09:11:54;;;;;;;8.90;6.17;;;1.10;99.90;;;1.98;100.00;99820.72;4756452;30;20303;-62
2021/01/03 09:14:30;;;;;;;7.73;6.30;;;1.20;99.90;;;1.84;100.00;99823.28;4756482;30;20298;-62
2021/01/03 09:17:07;;;;;;;7.83;5.67;;;1.10;99.90;;;2.18;100.00;99815.81;4756395;30;20283;-62
2021/01/03 09:19:54;;;;;;;7.07;5.93;;;1.20;99.90;;;2.05;100.00;99819.03;4757180;30;20196;-62
2021/01/03 09:22:29;;;;;;;7.73;6.03;;;1.20;99.90;;;2.27;100.00;99815.59;4756471;30;20196;-62
2021/01/03 09:25:00;;;;;;;6.07;5.30;;;1.30;99.90;;;2.22;100.00;99815.28;4756395;30;20192;-64
2021/01/03 09:27:30;;;;;;;8.10;5.80;;;1.30;99.90;;;2.38;100.00;99817.03;4756636;30;20230;-63
2021/01/03 09:30:23;;;;;;;7.77;5.83;;;1.40;99.90;;;2.25;100.00;99819.44;4756845;30;20300;-63
2021/01/03 09:33:04;;;;;;;7.23;5.33;;;1.40;99.90;;;2.26;100.00;99823.75;4756481;30;20782;-63
2021/01/03 09:35:49;;;;;;;6.30;5.40;;;1.40;99.90;;;2.21;100.00;99818.13;4756612;30;20278;-63
2021/01/03 09:38:50;;;;;;;6.60;5.40;;;1.40;99.90;;;2.31;100.00;99821.38;4756264;30;20239;-63
2021/01/03 09:41:42;;;;;;;7.30;5.27;;;1.50;99.90;;;2.30;100.00;99815.22;4756284;30;20287;-62
2021/01/03 09:44:25;;;;;;;7.73;5.37;;;1.50;99.90;;;2.45;100.00;99810.00;4756317;30;20287;-63
2021/01/03 09:47:01;;;;;;;5.70;4.43;;;1.60;99.90;;;2.51;100.00;99803.97;4756157;30;20652;-64
2021/01/03 09:49:40;;;;;;;8.57;5.50;;;1.60;99.90;;;2.56;100.00;99811.41;4756158;30;20271;-64
2021/01/03 09:52:20;;;;;;;8.23;5.00;;;1.60;99.90;;;2.76;100.00;99809.97;4756074;30;20255;-62
2021/01/03 09:54:56;;;;;;;6.73;5.47;;;1.70;99.90;;;2.93;100.00;99814.09;4756080;30;20282;-61
2021/01/03 09:57:35;;;;;;;6.37;5.17;;;1.90;99.90;;;2.60;100.00;99807.41;4756413;30;20199;-63
2021/01/03 10:00:11;;;;;;;6.97;5.37;;;1.90;99.90;;;2.53;100.00;99804.63;4756393;30;20223;-62
2021/01/03 10:02:40;;;;;;;8.10;4.83;;;1.80;99.90;;;2.85;100.00;99808.88;4754722;30;20220;-61
2021/01/03 10:05:23;;;;;;;7.07;5.17;;;1.90;99.90;;;3.00;100.00;99807.91;4753468;30;20274;-62
2021/01/03 10:08:03;;;;;;;6.57;5.20;;;2.00;99.90;;;3.20;100.00;99803.72;4753155;30;20239;-63
2021/01/03 10:10:46;;;;;;;5.93;4.70;;;2.10;99.90;;;3.01;100.00;99806.88;4752589;30;20197;-64
2021/01/03 10:13:16;;;;;;;6.30;5.03;;;2.10;99.90;;;3.06;100.00;99803.69;4753146;30;20228;-62
2021/01/03 10:15:49;;;;;;;6.57;4.90;;;2.20;99.90;;;3.12;100.00;99803.81;4753216;30;20292;-62
2021/01/03 10:18:33;;;;;;;6.43;5.03;;;2.20;99.90;;;2.96;100.00;99795.97;4753414;30;20223;-63
2021/01/03 10:21:18;;;;;;;6.17;4.63;;;2.20;99.90;;;3.14;100.00;99811.59;4753235;30;20229;-63
2021/01/03 10:23:55;;;;;;;5.47;4.33;;;2.10;99.90;;;3.14;100.00;99806.28;4753375;30;20196;-63
2021/01/03 10:26:26;;;;;;;6.53;5.23;;;2.10;99.90;;;2.99;100.00;99805.44;4753095;30;20651;-63
2021/01/03 10:28:54;;;;;;;7.80;5.30;;;2.20;99.90;;;3.17;100.00;99801.44;4752903;30;20703;-63
2021/01/03 10:31:24;;;;;;;4.83;4.30;;;2.20;99.90;;;2.89;100.00;99795.03;4733734;30;20288;-64
2021/01/03 10:33:52;;;;;;;6.20;4.57;;;2.10;99.90;;;3.12;100.00;99795.81;4735481;30;20217;-62
2021/01/03 10:36:24;;;;;;;5.67;5.10;;;2.20;99.90;;;3.25;100.00;99796.00;4735300;30;20212;-62
2021/01/03 10:38:52;;;;;;;6.33;5.20;;;2.30;99.90;;;3.16;100.00;99798.94;4735430;30;20231;-63
2021/01/03 10:41:19;;;;;;;6.73;4.80;;;2.30;99.90;;;3.22;100.00;99795.56;4735077;30;20542;-62
2021/01/03 10:43:47;;;;;;;5.87;4.90;;;2.30;99.90;;;3.08;100.00;99797.19;4735009;30;20268;-61
2021/01/03 10:46:17;;;;;;;5.43;4.80;;;2.20;99.90;;;2.80;100.00;99808.56;4734869;30;20275;-63
2021/01/03 10:48:44;;;;;;;6.97;5.53;;;2.20;99.90;;;2.97;100.00;99805.59;4734933;30;20270;-63